This is the latest recevied weather packets stored in our database for station/object VE3TEJ. If no packets are shown the sender has not sent any weather packets the latest 10 day(s).
| Time | Temp. | Humidity | Pressure | Rain* | Wind** | Luminosity | Snow |
|---|---|---|---|---|---|---|---|
| 1777905548 | 18.33° C | 58% | 1003.9 hPa | 0 mm | - | - | - |
| 1777905248 | 17.78° C | 60% | 1003.7 hPa | 0 mm | - | - | - |
| 1777904947 | 17.22° C | 58% | 1003.7 hPa | 0 mm | - | - | - |
| 1777904647 | 17.22° C | 59% | 1004 hPa | 0 mm | - | - | - |
| 1777904348 | 17.22° C | 58% | 1003.8 hPa | 0 mm | - | - | - |
| 1777904048 | 16.67° C | 58% | 1003.9 hPa | 0 mm | - | - | - |
| 1777903748 | 16.67° C | 59% | 1004 hPa | 0 mm | - | - | - |
| 1777903449 | 16.11° C | 59% | 1003.9 hPa | 0 mm | - | - | - |
| 1777903148 | 16.11° C | 60% | 1003.9 hPa | 0 mm | - | - | - |
| 1777902848 | 15.56° C | 60% | 1003.9 hPa | 0 mm | - | - | - |
| 1777902548 | 15.56° C | 60% | 1004.1 hPa | 0 mm | - | - | - |
| 1777902247 | 15.56° C | 61% | 1004 hPa | 0 mm | - | - | - |
| 1777901949 | 15.56° C | 61% | 1004 hPa | 0 mm | - | - | - |
| 1777901648 | 15° C | 62% | 1004 hPa | 0 mm | - | - | - |
| 1777901348 | 15° C | 62% | 1004.3 hPa | 0 mm | - | - | - |
| 1777901047 | 14.44° C | 63% | 1004.2 hPa | 0 mm | - | - | - |
| 1777900749 | 13.89° C | 63% | 1004.2 hPa | 0 mm | - | - | - |
| 1777900447 | 13.89° C | 63% | 1004.3 hPa | 0 mm | - | - | - |
| 1777900148 | 13.89° C | 63% | 1004.4 hPa | 0 mm | - | - | - |
| 1777899848 | 13.33° C | 64% | 1004.3 hPa | 0 mm | - | - | - |
| 1777899547 | 13.33° C | 64% | 1004.4 hPa | 0 mm | - | - | - |
| 1777899249 | 13.33° C | 64% | 1004.5 hPa | 0 mm | - | - | - |
| 1777898948 | 12.78° C | 65% | 1004.5 hPa | 0 mm | - | - | - |
| 1777898649 | 12.78° C | 66% | 1004.6 hPa | 0 mm | - | - | - |
| 1777898349 | 12.22° C | 67% | 1004.3 hPa | 0 mm | - | - | - |
* Rain latest hour (hover to see other rain measurements)
** Current wind speed in m/s (hover to see current wind gust speed)